createdAt,value
2018-01-27T00:00:15.782Z,101692.18
2018-01-27T00:02:43.292Z,101692.28
2018-01-27T00:05:10.837Z,101698.54
2018-01-27T00:07:38.381Z,101701.13
2018-01-27T00:10:05.910Z,101711.81
2018-01-27T00:12:33.438Z,101714.83
2018-01-27T00:15:00.995Z,101716.94
2018-01-27T00:17:28.518Z,101717.73
2018-01-27T00:19:56.040Z,101722.86
2018-01-27T00:22:23.575Z,101727.63
2018-01-27T00:24:51.129Z,101732.38
2018-01-27T00:27:18.631Z,101733.28
2018-01-27T00:29:46.139Z,101734.12
2018-01-27T00:32:13.634Z,101734.55
2018-01-27T00:34:41.165Z,101731.25
2018-01-27T00:37:08.649Z,101727.30
2018-01-27T00:39:36.162Z,101728.94
2018-01-27T00:42:03.712Z,101728.52
2018-01-27T00:44:31.276Z,101721.37
2018-01-27T00:46:58.800Z,101726.45
2018-01-27T00:49:26.319Z,101726.94
2018-01-27T00:51:53.878Z,101728.52
2018-01-27T00:54:21.389Z,101732.86
2018-01-27T00:56:48.934Z,101740.85
2018-01-27T00:59:16.429Z,101743.06
2018-01-27T01:01:43.946Z,101744.66
2018-01-27T01:04:11.466Z,101749.27
2018-01-27T01:06:38.944Z,101752.13
2018-01-27T01:09:06.470Z,101757.41
2018-01-27T01:11:33.989Z,101757.89
2018-01-27T01:14:01.505Z,101760.84
2018-01-27T01:16:29.058Z,101762.44
2018-01-27T01:18:56.606Z,101765.99
2018-01-27T01:21:24.106Z,101770.23
2018-01-27T01:23:51.631Z,101776.09
2018-01-27T01:26:19.138Z,101780.11
2018-01-27T01:28:46.662Z,101785.67
2018-01-27T01:31:14.198Z,101780.22
2018-01-27T01:33:41.801Z,101785.41
2018-01-27T01:36:09.322Z,101788.64
2018-01-27T01:38:36.841Z,101798.11
2018-01-27T01:41:04.359Z,101799.02
2018-01-27T01:46:36.325Z,101795.72
2018-01-27T01:49:15.502Z,101797.42
2018-01-27T01:51:43.025Z,101802.45
2018-01-27T01:54:10.584Z,101800.42
2018-01-27T01:56:38.079Z,101802.97
2018-01-27T01:59:05.597Z,101802.55
2018-01-27T02:01:33.090Z,101797.80
2018-01-27T02:04:00.719Z,101793.98
2018-01-27T02:06:28.276Z,101799.06
2018-01-27T02:08:55.953Z,101803.77
2018-01-27T02:11:23.500Z,101801.22
2018-01-27T02:13:50.995Z,101809.03
2018-01-27T02:16:18.509Z,101813.64
2018-01-27T02:18:46.092Z,101814.92
2018-01-27T02:21:13.611Z,101824.95
2018-01-27T02:23:42.013Z,101827.38
2018-01-27T02:26:09.516Z,101825.10
2018-01-27T02:28:37.048Z,101822.73
2018-01-27T02:31:04.591Z,101824.09
2018-01-27T02:33:32.094Z,101826.05
2018-01-27T02:35:59.638Z,101829.23
2018-01-27T02:38:27.180Z,101823.39
2018-01-27T02:40:54.749Z,101822.88
2018-01-27T02:43:22.292Z,101830.45
2018-01-27T02:45:49.797Z,101824.95
2018-01-27T02:48:17.300Z,101827.48
2018-01-27T02:50:44.828Z,101830.03
2018-01-27T02:53:12.317Z,101832.14
2018-01-27T02:55:39.794Z,101833.78
2018-01-27T02:58:07.351Z,101840.70
2018-01-27T03:00:34.914Z,101839.00
2018-01-27T03:03:02.475Z,101846.86
2018-01-27T03:05:29.999Z,101849.93
2018-01-27T03:07:57.565Z,101849.17
2018-01-27T03:10:25.080Z,101849.98
2018-01-27T03:12:53.036Z,101849.50
2018-01-27T03:15:20.527Z,101853.87
2018-01-27T03:17:48.054Z,101843.77
2018-01-27T03:20:15.613Z,101856.42
2018-01-27T03:22:43.117Z,101858.77
2018-01-27T03:25:10.671Z,101863.41
2018-01-27T03:27:38.204Z,101858.83
2018-01-27T03:30:05.745Z,101864.04
2018-01-27T03:32:33.281Z,101858.81
2018-01-27T03:35:00.813Z,101862.89
2018-01-27T03:37:28.328Z,101865.60
2018-01-27T03:39:55.856Z,101866.03
2018-01-27T03:42:23.362Z,101865.17
2018-01-27T03:44:50.869Z,101867.91
2018-01-27T03:47:18.443Z,101862.90
2018-01-27T03:49:45.944Z,101871.09
2018-01-27T03:52:13.466Z,101866.48
2018-01-27T03:54:41.063Z,101873.16
2018-01-27T03:57:08.603Z,101871.99
2018-01-27T03:59:36.138Z,101877.97
2018-01-27T04:02:03.656Z,101874.68
2018-01-27T04:04:31.189Z,101880.18
2018-01-27T04:06:58.720Z,101879.28
2018-01-27T04:09:26.224Z,101880.78
2018-01-27T04:11:53.761Z,101879.62
2018-01-27T04:14:21.297Z,101887.33
2018-01-27T04:16:48.821Z,101885.27
2018-01-27T04:19:16.332Z,101889.88
2018-01-27T04:21:43.839Z,101888.56
2018-01-27T04:24:11.359Z,101897.97
2018-01-27T04:26:38.855Z,101895.38
2018-01-27T04:29:06.370Z,101896.18
2018-01-27T04:31:33.872Z,101901.42
2018-01-27T04:34:01.373Z,101901.47
2018-01-27T04:36:28.865Z,101906.56
2018-01-27T04:38:56.385Z,101901.47
2018-01-27T04:41:23.913Z,101910.42
2018-01-27T04:43:51.437Z,101921.75
2018-01-27T04:46:19.322Z,101922.70
2018-01-27T04:48:46.937Z,101924.45
2018-01-27T04:51:14.450Z,101924.94
2018-01-27T04:53:42.018Z,101927.84
2018-01-27T04:56:09.553Z,101931.08
2018-01-27T04:58:37.073Z,101930.70
2018-01-27T05:01:04.775Z,101934.50
2018-01-27T05:03:32.269Z,101932.03
2018-01-27T05:05:59.770Z,101933.72
2018-01-27T05:08:27.424Z,101935.41
2018-01-27T05:10:55.003Z,101939.77
2018-01-27T05:13:22.508Z,101944.74
2018-01-27T05:15:50.004Z,101940.31
2018-01-27T05:18:17.497Z,101951.23
2018-01-27T05:20:45.167Z,101959.23
2018-01-27T05:23:12.722Z,101952.61
2018-01-27T05:25:40.229Z,101960.65
2018-01-27T05:28:07.767Z,101962.16
2018-01-27T05:30:35.328Z,101966.58
2018-01-27T05:33:02.924Z,101969.98
2018-01-27T05:35:30.523Z,101973.41
2018-01-27T05:37:58.041Z,101976.42
2018-01-27T05:40:25.572Z,101979.45
2018-01-27T05:42:53.062Z,101980.83
2018-01-27T05:45:20.550Z,101982.36
2018-01-27T05:47:48.126Z,101980.91
2018-01-27T05:50:15.653Z,101987.75
2018-01-27T05:52:43.167Z,101988.17
2018-01-27T05:55:10.703Z,101991.14
2018-01-27T05:57:38.276Z,102003.47
2018-01-27T06:00:05.841Z,102003.53
2018-01-27T06:02:33.397Z,102010.77
2018-01-27T06:05:00.936Z,102022.95
2018-01-27T06:07:28.477Z,102024.89
2018-01-27T06:09:56.113Z,102026.28
2018-01-27T06:12:23.632Z,102028.75
2018-01-27T06:14:51.173Z,102036.00
2018-01-27T06:17:18.727Z,102035.53
2018-01-27T06:19:46.247Z,102034.98
2018-01-27T06:22:13.785Z,102034.97
2018-01-27T06:24:41.299Z,102034.91
2018-01-27T06:27:08.800Z,102034.45
2018-01-27T06:29:36.326Z,102044.17
2018-01-27T06:32:03.838Z,102052.33
2018-01-27T06:34:31.358Z,102046.83
2018-01-27T06:36:58.874Z,102046.90
2018-01-27T06:39:26.384Z,102050.22
2018-01-27T06:41:54.002Z,102054.94
2018-01-27T06:44:21.547Z,102056.69
2018-01-27T06:46:49.079Z,102061.34
2018-01-27T06:49:16.621Z,102066.01
2018-01-27T06:51:44.251Z,102072.42
2018-01-27T06:54:11.829Z,102075.67
2018-01-27T06:56:39.433Z,102075.74
2018-01-27T06:59:08.089Z,102080.09
2018-01-27T07:01:36.838Z,102082.15
2018-01-27T07:04:04.329Z,102081.37
2018-01-27T07:06:31.856Z,102081.61
2018-01-27T07:08:59.377Z,102091.04
2018-01-27T07:11:26.896Z,102086.39
2018-01-27T07:13:54.428Z,102093.34
2018-01-27T07:16:22.036Z,102094.20
2018-01-27T07:18:49.576Z,102084.88
2018-01-27T07:21:17.087Z,102092.57
2018-01-27T07:23:44.649Z,102097.52
2018-01-27T07:26:12.162Z,102111.92
2018-01-27T07:28:39.712Z,102114.89
2018-01-27T07:31:07.218Z,102113.55
2018-01-27T07:33:34.699Z,102115.25
2018-01-27T07:36:02.212Z,102111.73
2018-01-27T07:38:29.709Z,102114.37
2018-01-27T07:40:57.191Z,102115.22
2018-01-27T07:43:24.728Z,102110.70
2018-01-27T07:45:52.264Z,102114.03
2018-01-27T07:48:20.518Z,102112.64
2018-01-27T07:50:50.147Z,102120.16
2018-01-27T07:53:17.675Z,102116.39
2018-01-27T07:55:45.191Z,102116.09
2018-01-27T07:58:12.700Z,102123.64
2018-01-27T08:00:40.206Z,102119.09
2018-01-27T08:03:07.758Z,102124.57
2018-01-27T08:05:35.477Z,102122.63
2018-01-27T08:08:02.993Z,102121.10
2018-01-27T08:10:30.525Z,102116.92
2018-01-27T08:12:58.043Z,102114.66
2018-01-27T08:15:25.794Z,102114.83
2018-01-27T08:17:56.567Z,102110.38
2018-01-27T08:20:24.566Z,102108.14
2018-01-27T08:22:52.083Z,102106.99
2018-01-27T08:25:20.440Z,102114.69
2018-01-27T08:27:47.978Z,102109.13
2018-01-27T08:30:15.475Z,102111.48
2018-01-27T08:32:42.986Z,102120.25
2018-01-27T08:35:10.482Z,102121.47
2018-01-27T08:37:38.001Z,102121.70
2018-01-27T08:40:05.548Z,102117.52
2018-01-27T08:42:33.035Z,102119.64
2018-01-27T08:45:00.528Z,102116.38
2018-01-27T08:47:28.026Z,102119.12
2018-01-27T08:49:55.548Z,102117.79
2018-01-27T08:52:23.067Z,102112.06
2018-01-27T08:54:50.556Z,102119.73
2018-01-27T08:57:18.081Z,102119.77
2018-01-27T08:59:45.599Z,102124.08
2018-01-27T09:02:13.160Z,102122.98
2018-01-27T09:04:40.656Z,102122.37
2018-01-27T09:07:08.169Z,102124.16
2018-01-27T09:09:35.751Z,102128.28
2018-01-27T09:12:03.252Z,102123.41
2018-01-27T09:14:30.784Z,102130.64
2018-01-27T09:16:58.300Z,102135.91
2018-01-27T09:19:25.825Z,102140.41
2018-01-27T09:21:53.353Z,102134.83
2018-01-27T09:24:20.844Z,102137.31
2018-01-27T09:26:48.366Z,102132.52
2018-01-27T09:29:15.885Z,102141.55
2018-01-27T09:31:43.412Z,102150.83
2018-01-27T09:34:10.924Z,102152.10
2018-01-27T09:36:38.432Z,102155.70
2018-01-27T09:39:05.922Z,102158.63
2018-01-27T09:41:33.404Z,102162.64
2018-01-27T09:44:00.897Z,102164.25
2018-01-27T09:46:28.408Z,102167.96
2018-01-27T09:48:55.915Z,102168.39
2018-01-27T09:51:23.733Z,102171.23
2018-01-27T09:53:51.222Z,102178.48
2018-01-27T09:56:18.720Z,102185.33
2018-01-27T09:58:46.195Z,102185.17
2018-01-27T10:01:13.674Z,102183.41
2018-01-27T10:03:41.198Z,102190.06
2018-01-27T10:06:08.715Z,102191.88
2018-01-27T10:08:36.236Z,102188.88
2018-01-27T10:11:03.709Z,102188.51
2018-01-27T10:13:31.254Z,102183.63
2018-01-27T10:15:58.745Z,102183.72
2018-01-27T10:18:26.495Z,102179.55
2018-01-27T10:20:54.021Z,102173.00
2018-01-27T10:23:21.533Z,102174.06
2018-01-27T10:25:49.417Z,102178.77
2018-01-27T10:28:17.054Z,102181.05
2018-01-27T10:30:44.551Z,102179.34
2018-01-27T10:33:12.065Z,102182.63
2018-01-27T10:35:39.622Z,102192.98
2018-01-27T10:38:07.135Z,102185.38
2018-01-27T10:40:34.659Z,102189.24
2018-01-27T10:43:02.158Z,102191.06
2018-01-27T10:45:29.644Z,102185.66
2018-01-27T10:47:57.155Z,102195.16
2018-01-27T10:50:24.657Z,102188.84
2018-01-27T10:52:52.204Z,102187.45
2018-01-27T10:55:19.736Z,102185.92
2018-01-27T10:57:47.255Z,102185.98
2018-01-27T11:00:14.749Z,102183.95
2018-01-27T11:02:42.279Z,102182.25
2018-01-27T11:05:09.786Z,102171.59
2018-01-27T11:07:37.285Z,102172.86
2018-01-27T11:10:04.818Z,102170.36
2018-01-27T11:12:32.306Z,102163.03
2018-01-27T11:15:00.041Z,102160.92
2018-01-27T11:17:27.616Z,102149.83
2018-01-27T11:19:55.143Z,102149.88
2018-01-27T11:22:22.630Z,102144.48
2018-01-27T11:24:50.124Z,102158.17
2018-01-27T11:27:17.641Z,102148.28
2018-01-27T11:29:45.165Z,102150.59
2018-01-27T11:32:12.669Z,102148.91
2018-01-27T11:34:40.184Z,102141.87
2018-01-27T11:37:07.693Z,102144.09
2018-01-27T11:39:35.214Z,102141.55
2018-01-27T11:42:02.725Z,102148.10
2018-01-27T11:44:30.352Z,102141.22
2018-01-27T11:46:57.838Z,102138.85
2018-01-27T11:49:25.349Z,102141.77
2018-01-27T11:51:52.841Z,102139.38
2018-01-27T11:54:22.272Z,102135.25
2018-01-27T11:56:51.641Z,102146.91
2018-01-27T11:59:19.285Z,102141.50
2018-01-27T12:01:46.768Z,102137.53
2018-01-27T12:04:17.838Z,102139.61
2018-01-27T12:06:45.356Z,102134.13
2018-01-27T12:09:12.869Z,102130.59
2018-01-27T12:11:40.395Z,102130.40
2018-01-27T12:14:07.881Z,102125.31
2018-01-27T12:16:35.586Z,102131.68
2018-01-27T12:19:03.428Z,102126.25
2018-01-27T12:21:30.921Z,102129.69
2018-01-27T12:23:58.560Z,102122.80
2018-01-27T12:26:26.090Z,102118.27
2018-01-27T12:28:53.687Z,102117.75
2018-01-27T12:31:21.212Z,102125.59
2018-01-27T12:33:48.808Z,102130.06
2018-01-27T12:36:16.326Z,102123.84
2018-01-27T12:38:45.074Z,102120.63
2018-01-27T12:41:12.627Z,102136.77
2018-01-27T12:43:40.183Z,102133.05
2018-01-27T12:46:07.758Z,102133.14
2018-01-27T12:48:35.312Z,102130.83
2018-01-27T12:51:02.929Z,102131.64
2018-01-27T12:53:30.421Z,102129.03
2018-01-27T12:55:57.921Z,102126.53
2018-01-27T12:58:25.411Z,102119.59
2018-01-27T13:00:52.942Z,102125.39
2018-01-27T13:03:20.469Z,102127.74
2018-01-27T13:05:47.979Z,102129.57
2018-01-27T13:08:15.469Z,102141.72
2018-01-27T13:10:43.673Z,102136.19
2018-01-27T13:13:11.170Z,102133.45
2018-01-27T13:15:38.750Z,102139.83
2018-01-27T13:18:06.252Z,102128.22
2018-01-27T13:20:33.730Z,102127.06
2018-01-27T13:23:01.235Z,102125.39
2018-01-27T13:25:28.767Z,102127.91
2018-01-27T13:27:56.345Z,102118.52
2018-01-27T13:30:23.837Z,102114.56
2018-01-27T13:32:51.366Z,102117.54
2018-01-27T13:35:18.885Z,102117.90
2018-01-27T13:37:46.414Z,102124.11
2018-01-27T13:40:13.958Z,102120.67
2018-01-27T13:42:41.480Z,102121.09
2018-01-27T13:45:09.015Z,102115.61
2018-01-27T13:47:36.629Z,102104.56
2018-01-27T13:50:04.183Z,102095.14
2018-01-27T13:52:31.806Z,102094.84
2018-01-27T13:54:59.346Z,102087.53
2018-01-27T13:57:26.848Z,102092.97
2018-01-27T13:59:54.364Z,102091.48
2018-01-27T14:02:21.902Z,102084.03
2018-01-27T14:04:49.402Z,102091.78
2018-01-27T14:07:16.944Z,102099.09
2018-01-27T14:09:44.435Z,102096.84
2018-01-27T14:12:11.962Z,102107.98
2018-01-27T14:14:39.494Z,102101.27
2018-01-27T14:17:07.153Z,102093.95
2018-01-27T14:19:34.664Z,102086.80
2018-01-27T14:22:02.172Z,102087.69
2018-01-27T14:24:29.663Z,102085.00
2018-01-27T14:26:57.249Z,102079.84
2018-01-27T14:29:24.746Z,102078.68
2018-01-27T14:31:52.304Z,102078.86
2018-01-27T14:34:19.813Z,102088.54
2018-01-27T14:36:47.351Z,102081.78
2018-01-27T14:39:16.317Z,102085.61
2018-01-27T14:41:43.798Z,102084.33
2018-01-27T14:44:11.286Z,102085.43
2018-01-27T14:46:38.816Z,102094.72
2018-01-27T14:49:06.345Z,102099.77
2018-01-27T14:51:33.846Z,102100.44
2018-01-27T14:54:01.367Z,102105.91
2018-01-27T14:56:28.962Z,102114.41
2018-01-27T14:58:56.478Z,102122.75
2018-01-27T15:01:24.040Z,102122.05
2018-01-27T15:03:52.247Z,102129.67
2018-01-27T15:06:19.770Z,102123.53
2018-01-27T15:08:47.301Z,102131.47
2018-01-27T15:11:14.877Z,102127.69
2018-01-27T15:13:42.386Z,102125.42
2018-01-27T15:16:09.922Z,102131.22
2018-01-27T15:18:37.407Z,102125.70
2018-01-27T15:21:04.929Z,102127.97
2018-01-27T15:23:32.448Z,102131.80
2018-01-27T15:25:59.967Z,102129.47
2018-01-27T15:28:27.446Z,102120.41
2018-01-27T15:30:54.921Z,102103.61
2018-01-27T15:33:22.426Z,102093.56
2018-01-27T15:35:49.926Z,102084.13
2018-01-27T15:38:17.463Z,102076.39
2018-01-27T15:40:45.893Z,102086.73
2018-01-27T15:43:13.400Z,102085.25
2018-01-27T15:45:40.949Z,102080.33
2018-01-27T15:48:08.516Z,102075.97
2018-01-27T15:50:36.028Z,102063.25
2018-01-27T15:53:03.537Z,102059.75
2018-01-27T15:55:31.040Z,102061.81
2018-01-27T15:57:58.566Z,102054.49
2018-01-27T16:00:26.100Z,102058.64
2018-01-27T16:02:53.591Z,102058.20
2018-01-27T16:05:21.098Z,102057.66
2018-01-27T16:07:48.588Z,102054.03
2018-01-27T16:10:16.089Z,102054.10
2018-01-27T16:12:43.631Z,102041.86
2018-01-27T16:15:11.157Z,102041.84
2018-01-27T16:17:38.689Z,102033.13
2018-01-27T16:20:06.173Z,102025.70
2018-01-27T16:22:34.554Z,102023.70
2018-01-27T16:25:02.043Z,102029.08
2018-01-27T16:27:29.748Z,102034.66
2018-01-27T16:29:57.282Z,102041.98
2018-01-27T16:32:24.791Z,102043.09
2018-01-27T16:34:52.306Z,102044.81
2018-01-27T16:37:19.857Z,102040.05
2018-01-27T16:39:47.376Z,102048.72
2018-01-27T16:42:14.892Z,102049.91
2018-01-27T16:44:42.390Z,102052.32
2018-01-27T16:47:09.882Z,102049.38
2018-01-27T16:49:37.382Z,102038.08
2018-01-27T16:52:04.902Z,102043.08
2018-01-27T16:54:32.417Z,102037.95
2018-01-27T16:56:59.990Z,102035.09
2018-01-27T16:59:27.480Z,102027.66
2018-01-27T17:01:56.715Z,102024.33
2018-01-27T17:04:24.215Z,102017.48
2018-01-27T17:06:51.720Z,102020.94
2018-01-27T17:09:19.253Z,102020.41
2018-01-27T17:11:46.799Z,102023.13
2018-01-27T17:14:14.289Z,102023.48
2018-01-27T17:16:41.839Z,102023.67
2018-01-27T17:19:09.419Z,102032.61
2018-01-27T17:21:36.997Z,102026.22
2018-01-27T17:24:04.551Z,102016.54
2018-01-27T17:26:32.054Z,102014.59
2018-01-27T17:28:59.550Z,102026.52
2018-01-27T17:31:27.097Z,102025.70
2018-01-27T17:33:56.905Z,102023.59
2018-01-27T17:36:24.442Z,102015.66
2018-01-27T17:38:52.001Z,102010.34
2018-01-27T17:41:19.508Z,101997.71
2018-01-27T17:43:47.003Z,101981.64
2018-01-27T17:46:14.528Z,101985.08
2018-01-27T17:48:42.042Z,101985.92
2018-01-27T17:51:09.564Z,101973.58
2018-01-27T17:53:37.055Z,101962.05
2018-01-27T17:56:04.588Z,101963.53
2018-01-27T17:58:32.085Z,101964.89
2018-01-27T18:00:59.629Z,101967.17
2018-01-27T18:03:27.192Z,101960.64
2018-01-27T18:05:54.818Z,101953.87
2018-01-27T18:08:22.406Z,101950.61
2018-01-27T18:10:50.394Z,101936.33
2018-01-27T18:13:17.894Z,101928.73
2018-01-27T18:15:45.412Z,101932.83
2018-01-27T18:18:12.917Z,101926.80
2018-01-27T18:20:40.430Z,101922.63
2018-01-27T18:23:07.950Z,101921.34
2018-01-27T18:25:35.674Z,101904.25
2018-01-27T18:28:03.194Z,101908.80
2018-01-27T18:30:30.830Z,101911.27
2018-01-27T18:32:58.384Z,101900.45
2018-01-27T18:35:25.972Z,101895.23
2018-01-27T18:37:53.473Z,101898.20
2018-01-27T18:40:20.962Z,101908.47
2018-01-27T18:42:48.869Z,101917.29
2018-01-27T18:45:16.690Z,101916.77
2018-01-27T18:47:44.507Z,101911.92
2018-01-27T18:50:14.347Z,101898.12
2018-01-27T18:52:42.516Z,101892.19
2018-01-27T18:55:10.409Z,101878.44
2018-01-27T18:57:38.132Z,101884.44
2018-01-27T19:00:06.126Z,101882.42
2018-01-27T19:02:34.945Z,101883.16
2018-01-27T19:05:04.051Z,101889.15
2018-01-27T19:07:32.945Z,101886.55
2018-01-27T19:10:01.873Z,101886.59
2018-01-27T19:12:30.409Z,101880.51
2018-01-27T19:14:58.382Z,101886.48
2018-01-27T19:17:27.018Z,101880.13
2018-01-27T19:19:55.478Z,101879.88
2018-01-27T19:22:23.305Z,101869.70
2018-01-27T19:24:51.069Z,101849.90
2018-01-27T19:27:18.894Z,101847.05
2018-01-27T19:29:47.046Z,101867.75
2018-01-27T19:32:15.669Z,101875.32
2018-01-27T19:34:45.913Z,101884.37
2018-01-27T19:37:16.256Z,101870.87
2018-01-27T19:39:44.484Z,101852.23
2018-01-27T19:42:12.271Z,101848.94
2018-01-27T19:44:39.970Z,101843.86
2018-01-27T19:47:07.752Z,101834.38
2018-01-27T19:49:35.957Z,101821.24
2018-01-27T19:52:03.803Z,101807.58
2018-01-27T19:54:31.341Z,101812.81
2018-01-27T19:56:58.976Z,101808.10
2018-01-27T19:59:26.527Z,101816.09
2018-01-27T20:01:54.029Z,101799.53
2018-01-27T20:04:21.517Z,101796.61
2018-01-27T20:06:49.060Z,101805.45
2018-01-27T20:09:16.568Z,101797.92
2018-01-27T20:11:44.087Z,101794.50
2018-01-27T20:14:11.639Z,101783.09
2018-01-27T20:16:40.209Z,101761.68
2018-01-27T20:19:08.384Z,101763.89
2018-01-27T20:21:35.874Z,101749.49
2018-01-27T20:24:03.855Z,101747.38
2018-01-27T20:26:31.524Z,101740.12
2018-01-27T20:28:59.114Z,101737.06
2018-01-27T20:31:26.609Z,101750.75
2018-01-27T20:33:54.564Z,101742.61
2018-01-27T20:36:22.126Z,101736.63
2018-01-27T20:38:49.631Z,101741.81
2018-01-27T20:41:17.105Z,101736.73
2018-01-27T20:43:45.412Z,101747.61
2018-01-27T20:46:13.859Z,101764.22
2018-01-27T20:48:41.377Z,101770.11
2018-01-27T20:51:09.018Z,101783.75
2018-01-27T20:53:37.484Z,101777.83
2018-01-27T20:56:05.654Z,101777.27
2018-01-27T20:58:35.208Z,101773.11
2018-01-27T21:01:04.849Z,101762.52
2018-01-27T21:03:33.495Z,101747.31
2018-01-27T21:06:02.183Z,101739.70
2018-01-27T21:08:29.897Z,101731.19
2018-01-27T21:10:57.481Z,101731.22
2018-01-27T21:13:25.006Z,101722.41
2018-01-27T21:15:52.502Z,101724.06
2018-01-27T21:18:20.006Z,101721.44
2018-01-27T21:20:47.522Z,101711.59
2018-01-27T21:23:15.032Z,101706.42
2018-01-27T21:25:42.765Z,101699.36
2018-01-27T21:28:10.244Z,101698.56
2018-01-27T21:30:37.756Z,101690.88
2018-01-27T21:33:07.021Z,101674.41
2018-01-27T21:35:35.728Z,101674.07
2018-01-27T21:38:03.743Z,101681.31
2018-01-27T21:40:31.953Z,101689.88
2018-01-27T21:43:01.297Z,101664.80
2018-01-27T21:45:29.415Z,101672.13
2018-01-27T21:47:56.986Z,101673.50
2018-01-27T21:50:24.513Z,101660.78
2018-01-27T21:52:52.749Z,101656.45
2018-01-27T21:55:20.248Z,101664.17
2018-01-27T21:57:47.763Z,101660.45
2018-01-27T22:00:15.298Z,101651.59
2018-01-27T22:02:42.817Z,101652.44
2018-01-27T22:05:12.124Z,101654.17
2018-01-27T22:07:41.454Z,101664.77
2018-01-27T22:10:09.026Z,101676.67
2018-01-27T22:12:43.730Z,101674.47
2018-01-27T22:15:11.320Z,101669.94
2018-01-27T22:17:38.837Z,101672.02
2018-01-27T22:20:06.398Z,101657.52
2018-01-27T22:22:34.057Z,101647.27
2018-01-27T22:25:01.578Z,101650.82
2018-01-27T22:27:29.094Z,101658.88
2018-01-27T22:29:56.710Z,101642.73
2018-01-27T22:32:24.268Z,101660.95
2018-01-27T22:34:51.819Z,101644.93
2018-01-27T22:37:19.390Z,101640.66
2018-01-27T22:39:47.080Z,101635.91
2018-01-27T22:42:14.602Z,101638.06
2018-01-27T22:44:44.626Z,101625.36
2018-01-27T22:47:12.164Z,101630.02
2018-01-27T22:49:39.653Z,101629.94
2018-01-27T22:52:07.154Z,101639.38
2018-01-27T22:54:34.657Z,101634.72
2018-01-27T22:57:02.179Z,101633.45
2018-01-27T22:59:29.680Z,101637.31
2018-01-27T23:01:57.196Z,101633.45
2018-01-27T23:04:24.686Z,101637.27
2018-01-27T23:06:52.190Z,101637.31
2018-01-27T23:09:19.674Z,101637.09
2018-01-27T23:11:47.188Z,101627.01
2018-01-27T23:14:14.696Z,101615.09
2018-01-27T23:16:42.250Z,101607.90
2018-01-27T23:19:09.722Z,101604.93
2018-01-27T23:21:37.262Z,101597.77
2018-01-27T23:24:04.763Z,101559.20
2018-01-27T23:26:32.284Z,101557.50
2018-01-27T23:28:59.829Z,101560.52
2018-01-27T23:31:27.361Z,101557.97
2018-01-27T23:33:54.858Z,101560.17
2018-01-27T23:36:22.342Z,101544.88
2018-01-27T23:38:49.853Z,101545.83
2018-01-27T23:41:17.325Z,101534.35
2018-01-27T23:43:44.846Z,101570.91
2018-01-27T23:46:12.414Z,101577.28
2018-01-27T23:48:39.939Z,101586.56
2018-01-27T23:51:07.445Z,101583.67
2018-01-27T23:53:34.945Z,101575.16
2018-01-27T23:56:02.452Z,101569.22
2018-01-27T23:58:30.023Z,101561.12
